createdAt,value
2022-08-19T00:01:14.316Z,20.20
2022-08-19T00:03:29.291Z,20.20
2022-08-19T00:05:32.724Z,20.20
2022-08-19T00:07:35.977Z,20.20
2022-08-19T00:09:41.738Z,20.20
2022-08-19T00:11:45.316Z,20.20
2022-08-19T00:13:48.835Z,20.10
2022-08-19T00:15:51.862Z,20.10
2022-08-19T00:17:55.478Z,20.10
2022-08-19T00:19:58.532Z,20.10
2022-08-19T00:22:01.603Z,20.10
2022-08-19T00:24:05.233Z,20.10
2022-08-19T00:26:11.478Z,20.10
2022-08-19T00:28:15.024Z,20.10
2022-08-19T00:30:18.188Z,20.10
2022-08-19T00:32:21.423Z,20.10
2022-08-19T00:34:24.487Z,20.10
2022-08-19T00:36:27.626Z,20.10
2022-08-19T00:38:35.217Z,20.00
2022-08-19T00:40:43.839Z,20.00
2022-08-19T00:42:49.409Z,19.90
2022-08-19T00:44:52.736Z,19.90
2022-08-19T00:46:58.772Z,19.80
2022-08-19T00:49:04.059Z,19.80
2022-08-19T00:51:07.350Z,19.70
2022-08-19T00:53:12.079Z,19.60
2022-08-19T00:55:18.615Z,19.50
2022-08-19T00:57:27.743Z,19.40
2022-08-19T00:59:56.391Z,19.40
2022-08-19T01:01:59.188Z,19.40
2022-08-19T01:04:02.597Z,19.30
2022-08-19T01:06:06.919Z,19.20
2022-08-19T01:08:11.177Z,19.20
2022-08-19T01:10:17.085Z,19.10
2022-08-19T01:12:20.409Z,19.10
2022-08-19T01:14:25.068Z,19.10
2022-08-19T01:16:31.454Z,19.00
2022-08-19T01:18:39.111Z,19.00
2022-08-19T01:20:43.255Z,18.90
2022-08-19T01:22:50.873Z,18.90
2022-08-19T01:24:53.978Z,18.80
2022-08-19T01:26:59.363Z,18.80
2022-08-19T01:29:02.344Z,18.80
2022-08-19T01:31:26.889Z,18.70
2022-08-19T01:33:30.972Z,18.80
2022-08-19T01:35:35.892Z,18.80
2022-08-19T01:37:54.415Z,18.90
2022-08-19T01:39:57.666Z,19.00
2022-08-19T01:42:00.796Z,19.10
2022-08-19T01:44:17.774Z,19.20
2022-08-19T01:46:24.967Z,19.30
2022-08-19T01:48:28.017Z,19.40
2022-08-19T01:50:31.710Z,19.40
2022-08-19T01:52:36.089Z,19.50
2022-08-19T01:54:41.279Z,19.50
2022-08-19T01:56:44.391Z,19.50
2022-08-19T01:58:52.529Z,19.40
2022-08-19T02:00:55.881Z,19.40
2022-08-19T02:02:59.100Z,19.40
2022-08-19T02:05:02.336Z,19.50
2022-08-19T02:07:05.642Z,19.40
2022-08-19T02:09:09.485Z,19.40
2022-08-19T02:11:20.965Z,19.30
2022-08-19T02:13:27.415Z,19.30
2022-08-19T02:15:30.708Z,19.40
2022-08-19T02:17:33.367Z,19.30
2022-08-19T02:19:36.096Z,19.30
2022-08-19T02:21:41.695Z,19.40
2022-08-19T02:23:44.595Z,19.40
2022-08-19T02:25:49.131Z,19.50
2022-08-19T02:27:54.695Z,19.50
2022-08-19T02:29:57.901Z,19.50
2022-08-19T02:32:00.870Z,19.50
2022-08-19T02:34:04.191Z,19.50
2022-08-19T02:36:12.785Z,19.50
2022-08-19T02:38:18.536Z,19.50
2022-08-19T02:40:21.539Z,19.50
2022-08-19T02:42:24.910Z,19.50
2022-08-19T02:44:32.029Z,19.50
2022-08-19T02:46:35.569Z,19.60
2022-08-19T02:48:38.655Z,19.60
2022-08-19T02:50:51.943Z,19.60
2022-08-19T02:52:56.532Z,19.60
2022-08-19T02:54:59.779Z,19.60
2022-08-19T02:57:03.244Z,19.60
2022-08-19T02:59:07.629Z,19.60
2022-08-19T03:01:21.622Z,19.60
2022-08-19T03:03:24.811Z,19.60
2022-08-19T03:05:46.871Z,19.60
2022-08-19T03:07:51.008Z,19.60
2022-08-19T03:09:54.036Z,19.70
2022-08-19T03:11:57.150Z,19.60
2022-08-19T03:14:01.228Z,19.60
2022-08-19T03:16:06.247Z,19.60
2022-08-19T03:18:12.291Z,19.60
2022-08-19T03:20:16.029Z,19.60
2022-08-19T03:22:19.025Z,19.60
2022-08-19T03:24:24.036Z,19.50
2022-08-19T03:26:27.601Z,19.50
2022-08-19T03:28:30.549Z,19.50
2022-08-19T03:30:33.644Z,19.50
2022-08-19T03:32:36.686Z,19.40
2022-08-19T03:34:47.399Z,19.40
2022-08-19T03:36:50.458Z,19.50
2022-08-19T03:38:59.741Z,19.50
2022-08-19T03:41:08.145Z,19.50
2022-08-19T03:43:11.146Z,19.60
2022-08-19T03:45:14.178Z,19.60
2022-08-19T03:47:17.322Z,19.70
2022-08-19T03:49:21.688Z,19.80
2022-08-19T03:51:38.813Z,19.80
2022-08-19T03:53:41.946Z,19.80
2022-08-19T03:55:44.886Z,19.80
2022-08-19T03:57:47.878Z,19.80
2022-08-19T03:59:50.813Z,19.80
2022-08-19T04:01:54.878Z,19.80
2022-08-19T04:03:59.331Z,19.80
2022-08-19T04:06:11.447Z,19.80
2022-08-19T04:08:17.357Z,19.80
2022-08-19T04:10:20.386Z,19.80
2022-08-19T04:12:23.417Z,19.80
2022-08-19T04:14:29.112Z,19.90
2022-08-19T04:16:35.328Z,19.90
2022-08-19T04:18:39.833Z,19.90
2022-08-19T04:20:45.077Z,19.90
2022-08-19T04:22:47.833Z,20.00
2022-08-19T04:24:53.063Z,20.00
2022-08-19T04:26:55.665Z,20.00
2022-08-19T04:28:59.083Z,20.00
2022-08-19T04:31:02.073Z,20.00
2022-08-19T04:33:05.076Z,20.00
2022-08-19T04:35:17.670Z,20.00
2022-08-19T04:37:22.342Z,20.10
2022-08-19T04:39:28.657Z,20.00
2022-08-19T04:41:34.502Z,20.10
2022-08-19T04:43:39.443Z,20.20
2022-08-19T04:45:44.600Z,20.30
2022-08-19T04:47:58.470Z,20.30
2022-08-19T04:50:11.320Z,20.30
2022-08-19T04:52:14.639Z,20.40
2022-08-19T04:54:33.739Z,20.40
2022-08-19T04:56:44.173Z,20.40
2022-08-19T04:58:47.841Z,20.40
2022-08-19T05:00:51.048Z,20.30
2022-08-19T05:02:54.218Z,20.30
2022-08-19T05:04:58.589Z,20.40
2022-08-19T05:07:02.439Z,20.40
2022-08-19T05:09:06.405Z,20.40
2022-08-19T05:11:11.802Z,20.40
2022-08-19T05:13:20.863Z,20.60
2022-08-19T05:15:23.883Z,20.60
2022-08-19T05:17:29.651Z,20.60
2022-08-19T05:19:35.359Z,20.60
2022-08-19T05:21:38.512Z,20.70
2022-08-19T05:23:41.434Z,20.70
2022-08-19T05:25:44.730Z,20.70
2022-08-19T05:27:48.619Z,20.80
2022-08-19T05:29:54.280Z,20.80
2022-08-19T05:31:57.220Z,20.90
2022-08-19T05:34:00.396Z,20.90
2022-08-19T05:36:04.485Z,20.80
2022-08-19T05:38:07.611Z,20.80
2022-08-19T05:40:11.843Z,20.80
2022-08-19T05:42:15.000Z,20.80
2022-08-19T05:44:18.400Z,20.70
2022-08-19T05:46:28.171Z,20.70
2022-08-19T05:48:31.358Z,20.70
2022-08-19T05:50:34.343Z,20.60
2022-08-19T05:52:38.724Z,20.60
2022-08-19T05:54:51.210Z,20.70
2022-08-19T05:56:55.039Z,20.70
2022-08-19T05:58:58.765Z,20.80
2022-08-19T06:01:02.446Z,20.70
2022-08-19T06:03:09.721Z,20.80
2022-08-19T06:05:16.229Z,20.70
2022-08-19T06:07:19.342Z,20.80
2022-08-19T06:09:23.437Z,21.00
2022-08-19T06:11:34.309Z,21.00
2022-08-19T06:13:37.343Z,21.00
2022-08-19T06:15:40.342Z,21.00
2022-08-19T06:17:43.369Z,21.20
2022-08-19T06:19:48.993Z,21.20
2022-08-19T06:21:53.751Z,21.20
2022-08-19T06:23:57.828Z,21.20
2022-08-19T06:26:00.919Z,21.20
2022-08-19T06:28:19.754Z,21.20
2022-08-19T06:30:23.131Z,21.20
2022-08-19T06:32:26.178Z,21.30
2022-08-19T06:34:31.686Z,21.20
2022-08-19T06:36:39.851Z,21.20
2022-08-19T06:38:42.853Z,21.20
2022-08-19T06:40:48.897Z,21.10
2022-08-19T06:42:54.781Z,21.10
2022-08-19T06:44:58.375Z,20.90
2022-08-19T06:47:09.577Z,20.90
2022-08-19T06:49:18.488Z,21.00
2022-08-19T06:51:23.079Z,21.00
2022-08-19T06:53:29.163Z,20.90
2022-08-19T06:55:33.401Z,21.00
2022-08-19T06:57:36.798Z,21.10
2022-08-19T06:59:40.074Z,21.10
2022-08-19T07:01:45.454Z,21.20
2022-08-19T07:03:48.538Z,21.20
2022-08-19T07:05:51.528Z,21.20
2022-08-19T07:07:57.586Z,21.20
2022-08-19T07:10:07.721Z,21.20
2022-08-19T07:12:13.780Z,21.20
2022-08-19T07:14:19.972Z,21.10
2022-08-19T07:16:29.034Z,21.20
2022-08-19T07:18:32.564Z,21.20
2022-08-19T07:20:35.998Z,21.20
2022-08-19T07:22:40.490Z,21.20
2022-08-19T07:24:51.309Z,21.20
2022-08-19T07:26:59.308Z,21.30
2022-08-19T07:29:02.328Z,21.30
2022-08-19T07:31:07.527Z,21.30
2022-08-19T07:33:12.036Z,21.30
2022-08-19T07:35:17.905Z,21.40
2022-08-19T07:37:20.897Z,21.40
2022-08-19T07:39:26.737Z,21.20
2022-08-19T07:41:30.844Z,21.20
2022-08-19T07:43:36.491Z,21.20
2022-08-19T07:45:39.645Z,21.10
2022-08-19T07:47:50.318Z,20.90
2022-08-19T07:49:54.153Z,21.00
2022-08-19T07:52:00.007Z,20.90
2022-08-19T07:54:03.071Z,21.00
2022-08-19T07:56:06.855Z,20.90
2022-08-19T07:58:11.202Z,20.90
2022-08-19T08:00:20.440Z,20.90
2022-08-19T08:02:27.558Z,20.80
2022-08-19T08:04:32.068Z,20.80
2022-08-19T08:06:35.103Z,20.60
2022-08-19T08:08:44.342Z,20.70
2022-08-19T08:10:53.164Z,20.70
2022-08-19T08:13:10.172Z,20.70
2022-08-19T08:15:17.128Z,20.60
2022-08-19T08:17:48.473Z,20.60
2022-08-19T08:19:46.602Z,20.60
2022-08-19T08:21:56.315Z,20.80
2022-08-19T08:26:22.189Z,20.70
2022-08-19T08:28:29.766Z,20.60
2022-08-19T08:30:35.642Z,20.70
2022-08-19T08:32:39.973Z,20.80
2022-08-19T08:34:44.537Z,20.80
2022-08-19T08:36:50.752Z,20.60
2022-08-19T08:41:23.392Z,20.70
2022-08-19T08:43:32.251Z,20.70
2022-08-19T08:45:44.535Z,20.80
2022-08-19T08:47:53.578Z,20.80
2022-08-19T08:50:02.129Z,20.90
2022-08-19T08:52:07.845Z,21.00
2022-08-19T08:54:13.540Z,20.90
2022-08-19T08:56:18.783Z,21.10
2022-08-19T08:58:28.207Z,21.10
2022-08-19T09:00:33.646Z,21.20
2022-08-19T09:02:39.530Z,21.20
2022-08-19T09:04:46.732Z,21.30
2022-08-19T09:07:01.811Z,21.30
2022-08-19T09:09:28.917Z,21.40
2022-08-19T09:11:48.545Z,21.70
2022-08-19T09:14:05.872Z,21.60
2022-08-19T09:16:12.687Z,21.90
2022-08-19T09:18:19.366Z,22.30
2022-08-19T09:20:26.282Z,22.70
2022-08-19T09:22:29.415Z,22.50
2022-08-19T09:24:32.381Z,22.40
2022-08-19T09:26:48.671Z,22.40
2022-08-19T09:28:55.936Z,22.20
2022-08-19T09:31:01.290Z,22.00
2022-08-19T09:33:04.314Z,21.70
2022-08-19T09:35:10.775Z,21.50
2022-08-19T09:37:15.331Z,21.30
2022-08-19T09:39:18.318Z,21.20
2022-08-19T09:41:24.112Z,21.30
2022-08-19T09:43:33.269Z,21.10
2022-08-19T09:45:37.051Z,21.00
2022-08-19T09:47:40.668Z,21.30
2022-08-19T09:49:43.888Z,21.40
2022-08-19T09:51:51.496Z,21.50
2022-08-19T09:53:55.337Z,21.90
2022-08-19T09:55:58.827Z,22.20
2022-08-19T09:58:02.415Z,22.00
2022-08-19T10:00:08.457Z,22.10
2022-08-19T10:02:11.499Z,22.10
2022-08-19T10:04:19.742Z,21.70
2022-08-19T10:06:43.946Z,21.70
2022-08-19T10:08:52.245Z,21.80
2022-08-19T10:10:56.258Z,21.70
2022-08-19T10:12:59.301Z,21.50
2022-08-19T10:15:05.258Z,21.40
2022-08-19T10:17:17.711Z,21.30
2022-08-19T10:19:25.666Z,21.30
2022-08-19T10:21:32.188Z,21.40
2022-08-19T10:23:40.515Z,21.50
2022-08-19T10:25:46.980Z,21.60
2022-08-19T10:27:51.642Z,21.80
2022-08-19T10:29:58.876Z,21.80
2022-08-19T10:32:04.704Z,22.00
2022-08-19T10:34:27.072Z,21.90
2022-08-19T10:36:33.600Z,22.10
2022-08-19T10:38:38.477Z,22.30
2022-08-19T10:40:41.934Z,22.30
2022-08-19T10:42:47.489Z,22.30
2022-08-19T10:44:52.055Z,22.20
2022-08-19T10:46:55.235Z,22.40
2022-08-19T10:49:00.710Z,22.20
2022-08-19T10:51:04.333Z,22.30
2022-08-19T10:53:09.736Z,22.50
2022-08-19T10:55:12.973Z,22.70
2022-08-19T10:57:16.359Z,22.70
2022-08-19T10:59:26.725Z,22.50
2022-08-19T11:01:30.146Z,22.50
2022-08-19T11:03:33.186Z,22.20
2022-08-19T11:05:36.586Z,22.30
2022-08-19T11:07:43.577Z,22.10
2022-08-19T11:09:46.591Z,22.40
2022-08-19T11:11:49.579Z,22.40
2022-08-19T11:13:53.119Z,22.60
2022-08-19T11:16:07.423Z,23.00
2022-08-19T11:18:13.570Z,22.80
2022-08-19T11:20:16.651Z,22.80
2022-08-19T11:22:19.825Z,23.00
2022-08-19T11:24:24.324Z,23.20
2022-08-19T11:26:28.359Z,23.50
2022-08-19T11:28:31.341Z,23.30
2022-08-19T11:30:34.362Z,23.20
2022-08-19T11:32:40.614Z,22.80
2022-08-19T11:34:44.840Z,22.80
2022-08-19T11:36:49.066Z,22.90
2022-08-19T11:38:52.645Z,22.90
2022-08-19T11:40:57.347Z,22.80
2022-08-19T11:43:00.432Z,23.10
2022-08-19T11:45:04.318Z,23.30
2022-08-19T11:47:09.261Z,23.70
2022-08-19T11:49:16.405Z,23.80
2022-08-19T11:51:22.233Z,23.90
2022-08-19T11:53:25.306Z,23.90
2022-08-19T11:55:28.412Z,23.50
2022-08-19T11:57:31.432Z,23.40
2022-08-19T11:59:34.408Z,23.30
2022-08-19T12:01:37.945Z,23.20
2022-08-19T12:03:41.040Z,23.20
2022-08-19T12:05:47.247Z,23.20
2022-08-19T12:07:50.313Z,22.90
2022-08-19T12:09:53.390Z,23.00
2022-08-19T12:11:58.115Z,23.30
2022-08-19T12:14:01.177Z,23.50
2022-08-19T12:16:09.749Z,23.40
2022-08-19T12:18:12.956Z,23.50
2022-08-19T12:20:16.564Z,23.40
2022-08-19T12:22:22.420Z,23.40
2022-08-19T12:24:25.422Z,23.20
2022-08-19T12:26:30.413Z,23.10
2022-08-19T12:28:33.480Z,22.80
2022-08-19T12:30:39.251Z,22.90
2022-08-19T12:32:42.312Z,23.10
2022-08-19T12:34:45.345Z,23.30
2022-08-19T12:36:48.400Z,23.00
2022-08-19T12:38:54.439Z,22.90
2022-08-19T12:41:00.327Z,23.00
2022-08-19T12:43:03.699Z,22.90
2022-08-19T12:45:12.653Z,23.10
2022-08-19T12:47:15.788Z,23.00
2022-08-19T12:49:34.380Z,22.90
2022-08-19T12:51:42.411Z,22.90
2022-08-19T12:53:45.438Z,23.00
2022-08-19T12:55:56.078Z,23.20
2022-08-19T12:57:59.221Z,23.50
2022-08-19T13:00:06.422Z,23.40
2022-08-19T13:02:09.612Z,23.50
2022-08-19T13:04:12.577Z,23.50
2022-08-19T13:06:15.785Z,23.40
2022-08-19T13:08:22.670Z,23.50
2022-08-19T13:10:30.129Z,23.40
2022-08-19T13:12:35.960Z,23.60
2022-08-19T13:14:39.529Z,23.80
2022-08-19T13:16:42.539Z,24.00
2022-08-19T13:18:47.437Z,24.30
2022-08-19T13:20:52.760Z,24.30
2022-08-19T13:22:56.397Z,24.90
2022-08-19T13:24:59.701Z,25.10
2022-08-19T13:27:02.704Z,25.20
2022-08-19T13:29:08.307Z,25.50
2022-08-19T13:31:11.314Z,24.70
2022-08-19T13:33:15.535Z,25.00
2022-08-19T13:35:19.493Z,24.60
2022-08-19T13:37:22.558Z,24.90
2022-08-19T13:39:26.237Z,24.70
2022-08-19T13:41:29.669Z,25.20
2022-08-19T13:43:32.725Z,25.70
2022-08-19T13:45:38.299Z,25.50
2022-08-19T13:47:41.671Z,24.60
2022-08-19T13:49:44.681Z,25.20
2022-08-19T13:51:47.868Z,25.60
2022-08-19T13:53:50.919Z,25.60
2022-08-19T13:55:55.547Z,24.70
2022-08-19T13:58:00.717Z,24.20
2022-08-19T14:00:11.609Z,24.20
2022-08-19T14:02:17.319Z,24.30
2022-08-19T14:04:20.315Z,24.20
2022-08-19T14:06:23.350Z,24.40
2022-08-19T14:08:26.486Z,24.30
2022-08-19T14:10:30.018Z,24.20
2022-08-19T14:12:33.098Z,24.10
2022-08-19T14:14:38.289Z,24.20
2022-08-19T14:16:41.349Z,24.20
2022-08-19T14:18:46.918Z,24.60
2022-08-19T14:20:50.008Z,24.90
2022-08-19T14:22:53.530Z,25.30
2022-08-19T14:24:57.858Z,24.70
2022-08-19T14:27:00.979Z,25.30
2022-08-19T14:29:04.089Z,26.00
2022-08-19T14:31:07.111Z,26.40
2022-08-19T14:33:10.090Z,25.30
2022-08-19T14:35:16.961Z,25.10
2022-08-19T14:37:20.107Z,24.60
2022-08-19T14:39:23.996Z,24.70
2022-08-19T14:41:27.549Z,24.20
2022-08-19T14:43:30.583Z,24.70
2022-08-19T14:45:35.811Z,24.60
2022-08-19T14:47:40.849Z,24.70
2022-08-19T14:49:49.915Z,25.40
2022-08-19T14:51:56.101Z,25.50
2022-08-19T14:53:59.121Z,25.60
2022-08-19T14:56:02.649Z,25.90
2022-08-19T14:58:08.833Z,26.10
2022-08-19T15:00:14.476Z,25.40
2022-08-19T15:02:33.432Z,25.20
2022-08-19T15:04:37.807Z,25.40
2022-08-19T15:06:40.930Z,24.70
2022-08-19T15:08:46.744Z,24.70
2022-08-19T15:10:49.759Z,24.80
2022-08-19T15:12:52.877Z,24.80
2022-08-19T15:14:56.874Z,24.20
2022-08-19T15:17:00.164Z,24.20
2022-08-19T15:19:03.208Z,24.00
2022-08-19T15:21:06.438Z,23.60
2022-08-19T15:23:09.393Z,23.50
2022-08-19T15:25:17.329Z,23.60
2022-08-19T15:27:20.465Z,23.60
2022-08-19T15:29:23.780Z,23.50
2022-08-19T15:31:28.921Z,23.40
2022-08-19T15:33:32.778Z,23.50
2022-08-19T15:35:35.938Z,23.70
2022-08-19T15:37:38.916Z,24.00
2022-08-19T15:39:41.943Z,24.40
2022-08-19T15:41:47.782Z,24.60
2022-08-19T15:43:52.562Z,24.30
2022-08-19T15:45:55.529Z,24.00
2022-08-19T15:47:58.628Z,24.00
2022-08-19T15:50:01.721Z,24.20
2022-08-19T15:52:05.417Z,24.20
2022-08-19T15:54:10.654Z,23.90
2022-08-19T15:56:14.558Z,23.90
2022-08-19T15:58:27.739Z,24.00
2022-08-19T16:00:32.636Z,24.10
2022-08-19T16:02:37.142Z,24.00
2022-08-19T16:04:40.356Z,24.10
2022-08-19T16:06:46.608Z,23.90
2022-08-19T16:08:49.595Z,23.80
2022-08-19T16:10:52.613Z,23.50
2022-08-19T16:12:56.897Z,23.20
2022-08-19T16:15:02.702Z,23.30
2022-08-19T16:17:05.902Z,23.20
2022-08-19T16:19:10.343Z,23.10
2022-08-19T16:21:15.890Z,22.90
2022-08-19T16:23:18.944Z,22.70
2022-08-19T16:25:22.107Z,22.50
2022-08-19T16:27:25.179Z,22.50
2022-08-19T16:29:34.468Z,22.70
2022-08-19T16:31:46.315Z,22.80
2022-08-19T16:33:49.583Z,22.50
2022-08-19T16:35:58.445Z,22.50
2022-08-19T16:38:03.767Z,22.40
2022-08-19T16:40:08.042Z,22.40
2022-08-19T16:42:11.965Z,22.40
2022-08-19T16:44:16.113Z,22.20
2022-08-19T16:46:19.456Z,22.30
2022-08-19T16:48:30.636Z,22.20
2022-08-19T16:50:48.746Z,22.10
2022-08-19T16:52:52.396Z,22.10
2022-08-19T16:54:55.383Z,21.90
2022-08-19T16:56:58.520Z,22.00
2022-08-19T16:59:01.928Z,22.00
2022-08-19T17:01:07.394Z,21.90
2022-08-19T17:03:14.905Z,21.90
2022-08-19T17:05:20.827Z,21.80
2022-08-19T17:07:23.781Z,21.80
2022-08-19T17:09:26.830Z,21.80
2022-08-19T17:11:34.857Z,21.40
2022-08-19T17:13:38.804Z,21.40
2022-08-19T17:15:42.518Z,21.40
2022-08-19T17:17:45.515Z,21.40
2022-08-19T17:19:48.499Z,21.20
2022-08-19T17:21:54.225Z,21.10
2022-08-19T17:23:57.364Z,21.10
2022-08-19T17:26:00.381Z,21.10
2022-08-19T17:28:07.604Z,21.00
2022-08-19T17:30:13.734Z,21.00
2022-08-19T17:32:16.711Z,21.00
2022-08-19T17:34:28.056Z,20.90
2022-08-19T17:36:33.184Z,21.00
2022-08-19T17:38:39.882Z,21.00
2022-08-19T17:40:43.458Z,21.00
2022-08-19T17:42:46.546Z,21.00
2022-08-19T17:44:50.687Z,21.00
2022-08-19T17:46:54.144Z,20.90
2022-08-19T17:48:57.974Z,20.90
2022-08-19T17:51:00.993Z,20.90
2022-08-19T17:53:04.802Z,20.90
2022-08-19T17:55:11.277Z,21.00
2022-08-19T17:57:14.337Z,20.90
2022-08-19T17:59:17.407Z,20.90
2022-08-19T18:01:21.061Z,20.90
2022-08-19T18:03:27.712Z,20.90
2022-08-19T18:05:33.569Z,20.90
2022-08-19T18:07:36.658Z,20.80
2022-08-19T18:09:42.858Z,20.90
2022-08-19T18:11:56.915Z,20.80
2022-08-19T18:14:00.169Z,20.80
2022-08-19T18:16:04.813Z,20.80
2022-08-19T18:18:11.754Z,20.70
2022-08-19T18:20:19.751Z,20.70
2022-08-19T18:22:26.512Z,20.70
2022-08-19T18:24:29.518Z,20.70
2022-08-19T18:26:32.866Z,20.60
2022-08-19T18:28:38.635Z,20.60
2022-08-19T18:30:41.755Z,20.70
2022-08-19T18:32:47.278Z,20.70
2022-08-19T18:34:50.343Z,20.70
2022-08-19T18:36:54.168Z,20.70
2022-08-19T18:38:57.317Z,20.60
2022-08-19T18:41:01.036Z,20.60
2022-08-19T18:43:04.864Z,20.70
2022-08-19T18:45:11.623Z,20.60
2022-08-19T18:47:14.610Z,20.50
2022-08-19T18:49:21.901Z,20.50
2022-08-19T18:51:28.485Z,20.50
2022-08-19T18:53:34.336Z,20.50
2022-08-19T18:55:37.648Z,20.50
2022-08-19T18:57:40.613Z,20.50
2022-08-19T18:59:43.662Z,20.50
2022-08-19T19:01:49.962Z,20.50
2022-08-19T19:03:55.156Z,20.60
2022-08-19T19:06:00.013Z,20.60
2022-08-19T19:08:03.240Z,20.60
2022-08-19T19:10:07.978Z,20.50
2022-08-19T19:12:12.462Z,20.50
2022-08-19T19:14:32.744Z,20.50
2022-08-19T19:16:42.746Z,20.50
2022-08-19T19:18:49.096Z,20.50
2022-08-19T19:20:52.291Z,20.40
2022-08-19T19:22:56.848Z,20.50
2022-08-19T19:25:01.584Z,20.40
2022-08-19T19:27:06.118Z,20.40
2022-08-19T19:29:09.231Z,20.40
2022-08-19T19:31:14.500Z,20.40
2022-08-19T19:33:17.453Z,20.40
2022-08-19T19:35:23.244Z,20.30
2022-08-19T19:37:26.494Z,20.40
2022-08-19T19:39:45.080Z,20.40
2022-08-19T19:41:50.268Z,20.40
2022-08-19T19:44:16.397Z,20.40
2022-08-19T19:46:17.691Z,20.40
2022-08-19T19:48:20.841Z,20.30
2022-08-19T19:50:26.703Z,20.20
2022-08-19T19:52:29.617Z,20.10
2022-08-19T19:54:32.602Z,20.10
2022-08-19T19:56:35.690Z,20.10
2022-08-19T19:58:39.128Z,20.00
2022-08-19T20:00:42.166Z,19.90
2022-08-19T20:02:49.626Z,19.90
2022-08-19T20:04:53.320Z,19.90
2022-08-19T20:06:58.521Z,19.90
2022-08-19T20:09:01.069Z,19.90
2022-08-19T20:11:06.070Z,19.80
2022-08-19T20:13:09.722Z,19.80
2022-08-19T20:15:12.765Z,19.80
2022-08-19T20:17:15.729Z,19.90
2022-08-19T20:19:21.438Z,19.90
2022-08-19T20:21:26.884Z,19.90
2022-08-19T20:23:32.421Z,19.90
2022-08-19T20:25:37.193Z,19.90
2022-08-19T20:27:41.045Z,20.00
2022-08-19T20:29:45.537Z,20.00
2022-08-19T20:31:57.229Z,20.00
2022-08-19T20:34:03.064Z,20.00
2022-08-19T20:36:06.649Z,20.00
2022-08-19T20:38:09.670Z,20.10
2022-08-19T20:40:16.330Z,20.10
2022-08-19T20:42:24.820Z,20.00
2022-08-19T20:44:27.785Z,20.00
2022-08-19T20:46:31.008Z,20.00
2022-08-19T20:48:34.069Z,20.10
2022-08-19T20:50:37.194Z,20.10
2022-08-19T20:52:40.143Z,20.10
2022-08-19T20:54:43.358Z,20.10
2022-08-19T20:56:48.911Z,20.10
2022-08-19T20:58:55.463Z,20.10
2022-08-19T21:01:01.602Z,20.10
2022-08-19T21:03:05.015Z,20.10
2022-08-19T21:05:08.377Z,20.10
2022-08-19T21:07:11.332Z,19.90
2022-08-19T21:09:14.379Z,19.90
2022-08-19T21:11:17.406Z,19.90
2022-08-19T21:13:26.393Z,19.90
2022-08-19T21:15:29.574Z,19.90
2022-08-19T21:17:32.619Z,19.90
2022-08-19T21:19:36.060Z,20.00
2022-08-19T21:21:39.003Z,20.00
2022-08-19T21:23:42.452Z,20.00
2022-08-19T21:25:54.372Z,20.00
2022-08-19T21:27:57.752Z,19.90
2022-08-19T21:30:02.982Z,19.90
2022-08-19T21:32:06.113Z,19.90
2022-08-19T21:34:08.608Z,19.90
2022-08-19T21:36:11.415Z,19.90
2022-08-19T21:38:14.475Z,20.00
2022-08-19T21:40:18.602Z,19.90
2022-08-19T21:42:21.978Z,19.90
2022-08-19T21:44:25.057Z,19.90
2022-08-19T21:46:30.745Z,19.90
2022-08-19T21:48:33.767Z,19.80
2022-08-19T21:50:36.728Z,19.90
2022-08-19T21:52:40.620Z,19.90
2022-08-19T21:54:43.572Z,19.80
2022-08-19T21:56:46.515Z,19.90
2022-08-19T21:58:49.486Z,19.90
2022-08-19T22:00:52.540Z,19.80
2022-08-19T22:02:58.827Z,19.80
2022-08-19T22:05:01.892Z,19.90
2022-08-19T22:07:05.274Z,19.90
2022-08-19T22:09:08.217Z,19.90
2022-08-19T22:11:12.024Z,19.90
2022-08-19T22:13:15.996Z,19.90
2022-08-19T22:15:21.006Z,19.90
2022-08-19T22:17:24.583Z,19.90
2022-08-19T22:19:30.656Z,19.90
2022-08-19T22:21:40.771Z,19.80
2022-08-19T22:23:44.619Z,19.70
2022-08-19T22:25:47.986Z,19.70
2022-08-19T22:27:51.800Z,19.60
2022-08-19T22:29:59.952Z,19.60
2022-08-19T22:32:22.978Z,19.50
2022-08-19T22:34:29.105Z,19.50
2022-08-19T22:36:32.224Z,19.50
2022-08-19T22:38:35.863Z,19.50
2022-08-19T22:40:40.942Z,19.50
2022-08-19T22:42:44.077Z,19.50
2022-08-19T22:44:47.095Z,19.50
2022-08-19T22:46:50.283Z,19.40
2022-08-19T22:48:56.011Z,19.40
2022-08-19T22:51:07.225Z,19.40
2022-08-19T22:53:11.451Z,19.40
2022-08-19T22:55:14.525Z,19.40
2022-08-19T22:57:21.870Z,19.40
2022-08-19T22:59:24.887Z,19.40
2022-08-19T23:01:30.530Z,19.30
2022-08-19T23:03:33.940Z,19.30
2022-08-19T23:05:37.955Z,19.30
2022-08-19T23:07:50.121Z,19.40
2022-08-19T23:09:57.282Z,19.40
2022-08-19T23:12:00.302Z,19.40
2022-08-19T23:14:03.898Z,19.40
2022-08-19T23:16:09.254Z,19.40
2022-08-19T23:18:13.185Z,19.30
2022-08-19T23:20:16.904Z,19.20
2022-08-19T23:22:20.004Z,19.20
2022-08-19T23:24:30.854Z,19.20
2022-08-19T23:26:36.108Z,19.20
2022-08-19T23:28:39.449Z,19.20
2022-08-19T23:30:46.500Z,19.20
2022-08-19T23:32:49.755Z,19.20
2022-08-19T23:34:55.719Z,19.30
2022-08-19T23:36:58.978Z,19.30
2022-08-19T23:39:01.965Z,19.30
2022-08-19T23:41:10.149Z,19.30
2022-08-19T23:43:17.416Z,19.30
2022-08-19T23:45:27.782Z,19.30
2022-08-19T23:47:30.824Z,19.30
2022-08-19T23:49:33.867Z,19.20
2022-08-19T23:51:36.916Z,19.20
2022-08-19T23:53:41.263Z,19.10
2022-08-19T23:55:47.927Z,19.10
2022-08-19T23:57:54.194Z,19.10
2022-08-19T23:59:57.303Z,19.20
